Franklin, West Virginia
Current Conditions -  °F | °C
As of 1:55 AM on Thursday 23 Oct 2014 (Local Time) from KVBW Reporting Station
Overcast Overcast  
Wind Chill: 47°   Ceiling: 3600
Heat Index: 49°   Visibility: 10mi
Dew Point: 39°   Wind: 5mph
Humidity: 68%   Direction: 340°NNW
Pressure: 30.03"   Gusts: NA
Location:  38.64°N, 79.33°W
Report Text: KVBW 230555Z AUTO 34004KT 10SM OVC036 09/04 A3003 RMK AO2 T00940038 10103 20073 401450073
Loading
Personal Weather Stations






























Interactive Weather Map New forecast layout! Learn more

10-Day Weather Forecast

Advertisements
Track Severe Weather on mobile